Overview Statistics Trail Chart Weather Telemetry Raw packets
 

This is the latest recevied weather packets stored in our database for station/object VK4CWL-13. If no packets are shown the sender has not sent any weather packets the latest 10 day(s).

<< 96 97 98 99 100 101 102 >>
Time Temp. Humidity Pressure Rain* Wind** Luminosity Snow
1787956591 18.89° C 63% 1026.9 hPa 0 mm - - -
1787956289 18.89° C 62% 1026.8 hPa 0 mm - - -
1787955987 18.33° C 62% 1026.7 hPa 0 mm - - -
1787955684 18.33° C 61% 1026.5 hPa 0 mm - - -
1787955382 18.33° C 59% 1026.4 hPa 0 mm - - -
1787955080 18.33° C 58% 1026.2 hPa 0 mm - - -
1787954780 18.33° C 59% 1026.2 hPa 0 mm - - -
1787954474 17.78° C 57% 1026 hPa 0 mm - - -
1787954172 17.22° C 56% 1025.9 hPa 0 mm - - -
1787953870 17.22° C 56% 1025.8 hPa 0 mm - - -
1787953568 16.67° C 58% 1025.8 hPa 0 mm - - -
1787953266 16.11° C 59% 1025.8 hPa 0 mm - - -
1787952964 15.56° C 59% 1025.7 hPa 0 mm - - -
1787952661 15° C 61% 1025.7 hPa 0 mm - - -
1787952359 14.44° C 61% 1025.6 hPa 0 mm - - -
1787952058 14.44° C 63% 1025.7 hPa 0 mm - - -
1787951756 13.89° C 63% 1025.5 hPa 0 mm - - -
1787951452 13.33° C 65% 1025.7 hPa 0 mm - - -
1787951149 13.33° C 66% 1025.7 hPa 0 mm - - -
1787950849 12.78° C 69% 1025.6 hPa 0 mm - - -
1787950545 12.22° C 69% 1025.6 hPa 0 mm - - -
1787950243 11.67° C 68% 1025.4 hPa 0 mm - - -
1787949941 11.67° C 69% 1025.4 hPa 0 mm - - -
1787949640 11.67° C 69% 1025.2 hPa 0 mm - - -
1787949336 11.67° C 69% 1025.2 hPa 0 mm - - -

* Rain since midnight (hover to see other rain measurements)
** Current wind speed in m/s (hover to see current wind gust speed)